createdAt,value
2022-12-26T14:57:54.053Z,13.50
2022-12-26T15:00:46.579Z,13.40
2022-12-26T15:03:51.560Z,13.40
2022-12-26T15:07:20.753Z,13.40
2022-12-26T15:10:45.697Z,13.40
2022-12-26T15:14:07.981Z,13.40
2022-12-26T15:17:09.610Z,13.40
2022-12-26T15:20:30.559Z,13.40
2022-12-26T15:23:46.742Z,13.30
2022-12-26T15:26:49.532Z,13.30
2022-12-26T15:29:58.153Z,13.30
2022-12-26T15:33:01.993Z,13.30
2022-12-26T15:35:59.516Z,13.30
2022-12-26T15:38:59.453Z,13.30
2022-12-26T15:41:51.858Z,13.30
2022-12-26T15:44:50.231Z,13.20
2022-12-26T15:47:47.788Z,13.30
2022-12-26T15:50:51.652Z,13.20
2022-12-26T15:53:56.215Z,13.20
2022-12-26T15:57:06.309Z,13.10
2022-12-26T16:00:12.843Z,13.10
2022-12-26T16:03:16.038Z,13.10
2022-12-26T16:06:28.389Z,13.10
2022-12-26T16:09:29.243Z,13.10
2022-12-26T16:12:26.769Z,13.10
2022-12-26T16:15:18.830Z,12.80
2022-12-26T16:18:18.063Z,12.70
2022-12-26T16:21:25.883Z,12.80
2022-12-26T16:24:20.745Z,12.80
2022-12-26T16:27:15.700Z,12.90
2022-12-26T16:30:12.116Z,12.90
2022-12-26T16:33:02.658Z,12.70
2022-12-26T16:35:58.995Z,12.80
2022-12-26T16:38:51.106Z,12.90
2022-12-26T16:42:00.305Z,13.00
2022-12-26T16:44:49.708Z,13.00
2022-12-26T16:47:39.444Z,12.90
2022-12-26T16:50:30.133Z,12.90
2022-12-26T16:53:21.136Z,12.90
2022-12-26T16:56:24.242Z,12.90
2022-12-26T16:59:19.189Z,12.90
2022-12-26T17:02:16.834Z,12.90
2022-12-26T17:05:09.359Z,12.90
2022-12-26T17:08:02.446Z,12.90
2022-12-26T17:10:53.079Z,12.90
2022-12-26T17:13:48.742Z,12.90
2022-12-26T17:16:39.207Z,12.90
2022-12-26T17:19:31.586Z,12.90
2022-12-26T17:22:27.804Z,12.90
2022-12-26T17:25:26.230Z,12.80
2022-12-26T17:28:28.937Z,12.80
2022-12-26T17:31:23.166Z,12.80
2022-12-26T17:34:27.546Z,13.30
2022-12-26T17:37:23.759Z,12.80
2022-12-26T17:40:25.833Z,12.80
2022-12-26T17:43:24.314Z,12.80
2022-12-26T17:46:15.967Z,12.80
2022-12-26T17:49:04.919Z,12.90
2022-12-26T17:52:01.788Z,12.80
2022-12-26T17:54:51.884Z,12.80
2022-12-26T17:57:40.944Z,12.70
2022-12-26T18:00:31.040Z,12.70
2022-12-26T18:03:20.688Z,12.60
2022-12-26T18:06:12.339Z,12.60
2022-12-26T18:09:02.864Z,12.70
2022-12-26T18:11:51.879Z,12.60
2022-12-26T18:14:41.347Z,12.60
2022-12-26T18:17:33.420Z,12.60
2022-12-26T18:20:23.931Z,12.60
2022-12-26T18:23:13.188Z,12.70
2022-12-26T18:26:07.005Z,12.70
2022-12-26T18:28:57.715Z,12.60
2022-12-26T18:31:46.707Z,12.70
2022-12-26T18:34:36.340Z,12.60
2022-12-26T18:37:27.017Z,12.50
2022-12-26T18:40:29.250Z,12.40
2022-12-26T18:43:20.346Z,12.40
2022-12-26T18:46:17.322Z,12.30
2022-12-26T18:49:06.307Z,12.30
2022-12-26T18:51:55.882Z,12.30
2022-12-26T18:54:45.511Z,12.40
2022-12-26T18:57:35.043Z,12.40
2022-12-26T19:00:27.183Z,12.30
2022-12-26T19:03:16.381Z,12.30
2022-12-26T19:06:06.018Z,12.30
2022-12-26T19:08:55.102Z,12.40
2022-12-26T19:11:44.500Z,12.30
2022-12-26T19:14:33.632Z,12.30
2022-12-26T19:17:24.092Z,12.20
2022-12-26T19:20:19.659Z,12.20
2022-12-26T19:23:08.389Z,12.30
2022-12-26T19:25:57.119Z,12.30
2022-12-26T19:28:46.680Z,12.20
2022-12-26T19:31:35.900Z,12.10
2022-12-26T19:34:27.455Z,12.10
2022-12-26T19:37:16.663Z,12.10
2022-12-26T19:40:07.024Z,12.10
2022-12-26T19:42:55.960Z,12.10
2022-12-26T19:45:46.055Z,12.10
2022-12-26T19:48:39.735Z,12.10
2022-12-26T19:51:30.271Z,12.00
2022-12-26T19:54:19.351Z,12.00
2022-12-26T19:57:09.116Z,11.90
2022-12-26T19:59:58.624Z,11.80
2022-12-26T20:02:47.863Z,11.70
2022-12-26T20:05:38.297Z,11.60
2022-12-26T20:08:28.888Z,11.50
2022-12-26T20:11:21.539Z,11.20
2022-12-26T20:14:15.605Z,11.20
2022-12-26T20:17:06.698Z,11.30
2022-12-26T20:19:56.524Z,11.50
2022-12-26T20:22:52.729Z,11.60
2022-12-26T20:25:43.621Z,11.60
2022-12-26T20:28:33.135Z,11.60
2022-12-26T20:31:23.630Z,11.60
2022-12-26T20:34:13.362Z,11.70
2022-12-26T20:37:03.274Z,11.70
2022-12-26T20:39:52.860Z,11.50
2022-12-26T20:42:43.159Z,11.50
2022-12-26T20:45:32.242Z,11.60
2022-12-26T20:48:21.374Z,11.50
2022-12-26T20:51:14.196Z,11.40
2022-12-26T20:54:03.417Z,11.40
2022-12-26T20:56:52.383Z,11.50
2022-12-26T20:59:42.933Z,11.50
2022-12-26T21:02:32.103Z,11.50
2022-12-26T21:05:21.209Z,11.50
2022-12-26T21:08:10.223Z,11.60
2022-12-26T21:11:06.735Z,11.60
2022-12-26T21:13:59.036Z,11.60
2022-12-26T21:16:51.107Z,11.60
2022-12-26T21:19:40.575Z,11.60
2022-12-26T21:22:31.113Z,11.70
2022-12-26T21:25:20.185Z,11.70
2022-12-26T21:28:09.267Z,11.60
2022-12-26T21:30:58.789Z,11.50
2022-12-26T21:33:49.354Z,11.50
2022-12-26T21:36:39.126Z,11.40
2022-12-26T21:39:28.194Z,11.10
2022-12-26T21:42:17.677Z,11.30
2022-12-26T21:45:07.572Z,11.10
2022-12-26T21:47:56.660Z,11.00
2022-12-26T21:50:47.626Z,11.10
2022-12-26T21:53:36.825Z,11.30
2022-12-26T21:56:24.727Z,11.40
2022-12-26T21:59:32.934Z,11.40
2022-12-26T22:02:39.855Z,11.40
2022-12-26T22:05:30.810Z,11.40
2022-12-26T22:08:21.526Z,11.40
2022-12-26T22:11:35.480Z,11.50
2022-12-26T22:14:24.800Z,11.50
2022-12-26T22:17:14.076Z,11.30
2022-12-26T22:20:02.842Z,11.00
2022-12-26T22:22:52.350Z,10.80
2022-12-26T22:25:43.345Z,10.80
2022-12-26T22:28:32.714Z,10.80
2022-12-26T22:31:23.439Z,10.80
2022-12-26T22:34:13.378Z,11.00
2022-12-26T22:37:02.775Z,11.00
2022-12-26T22:39:52.212Z,11.00
2022-12-26T22:42:43.039Z,11.10
2022-12-26T22:45:32.092Z,11.10
2022-12-26T22:48:21.278Z,11.00
2022-12-26T22:51:16.785Z,10.90
2022-12-26T22:54:06.126Z,11.00
2022-12-26T22:56:55.285Z,11.10
2022-12-26T23:02:55.788Z,10.80
2022-12-26T23:05:45.743Z,10.80
2022-12-26T23:08:35.214Z,11.00
2022-12-26T23:11:30.300Z,11.10
2022-12-26T23:14:23.371Z,11.30
2022-12-26T23:17:39.146Z,11.40
2022-12-26T23:20:49.630Z,11.30
2022-12-26T23:23:40.174Z,11.40
2022-12-26T23:26:28.719Z,11.50
2022-12-26T23:29:37.379Z,11.60
2022-12-26T23:32:28.307Z,11.70
2022-12-26T23:35:18.148Z,11.70
2022-12-26T23:38:07.649Z,11.50
2022-12-26T23:40:56.577Z,11.50
2022-12-26T23:43:45.845Z,11.50
2022-12-26T23:46:35.087Z,11.40
2022-12-26T23:49:25.827Z,11.30
2022-12-26T23:52:14.770Z,11.20
2022-12-26T23:55:04.270Z,11.20
2022-12-26T23:57:53.203Z,11.20
